sensor_id;sensor_type;location;lat;lon;timestamp;P1;durP1;ratioP1;P2;durP2;ratioP2
16994;SDS011;8614;48.522;9.206;2023-08-20T00:01:26;10.80;;;9.83;;
16994;SDS011;8614;48.522;9.206;2023-08-20T00:03:55;11.47;;;10.47;;
16994;SDS011;8614;48.522;9.206;2023-08-20T00:06:23;11.57;;;10.47;;
16994;SDS011;8614;48.522;9.206;2023-08-20T00:08:50;11.77;;;10.67;;
16994;SDS011;8614;48.522;9.206;2023-08-20T00:11:17;11.93;;;10.93;;
16994;SDS011;8614;48.522;9.206;2023-08-20T00:13:44;11.83;;;10.83;;
16994;SDS011;8614;48.522;9.206;2023-08-20T00:16:11;11.93;;;10.83;;
16994;SDS011;8614;48.522;9.206;2023-08-20T00:18:38;11.77;;;10.87;;
16994;SDS011;8614;48.522;9.206;2023-08-20T00:21:07;12.37;;;11.03;;
16994;SDS011;8614;48.522;9.206;2023-08-20T00:23:34;12.83;;;11.73;;
16994;SDS011;8614;48.522;9.206;2023-08-20T00:26:02;13.10;;;11.80;;
16994;SDS011;8614;48.522;9.206;2023-08-20T00:28:29;12.20;;;11.10;;
16994;SDS011;8614;48.522;9.206;2023-08-20T00:30:58;11.93;;;10.90;;
16994;SDS011;8614;48.522;9.206;2023-08-20T00:33:26;11.93;;;10.90;;
16994;SDS011;8614;48.522;9.206;2023-08-20T00:35:53;11.73;;;10.57;;
16994;SDS011;8614;48.522;9.206;2023-08-20T00:38:21;12.07;;;10.97;;
16994;SDS011;8614;48.522;9.206;2023-08-20T00:40:48;11.70;;;10.70;;
16994;SDS011;8614;48.522;9.206;2023-08-20T00:43:15;12.97;;;11.80;;
16994;SDS011;8614;48.522;9.206;2023-08-20T00:45:42;12.07;;;10.97;;
16994;SDS011;8614;48.522;9.206;2023-08-20T00:48:09;12.50;;;11.03;;
16994;SDS011;8614;48.522;9.206;2023-08-20T00:50:37;11.33;;;10.43;;
16994;SDS011;8614;48.522;9.206;2023-08-20T00:53:05;12.17;;;11.07;;
16994;SDS011;8614;48.522;9.206;2023-08-20T00:55:34;11.57;;;10.50;;
16994;SDS011;8614;48.522;9.206;2023-08-20T00:58:02;12.23;;;11.23;;
16994;SDS011;8614;48.522;9.206;2023-08-20T01:00:29;12.13;;;10.93;;
16994;SDS011;8614;48.522;9.206;2023-08-20T01:02:57;12.63;;;10.70;;
16994;SDS011;8614;48.522;9.206;2023-08-20T01:05:24;11.70;;;10.60;;
16994;SDS011;8614;48.522;9.206;2023-08-20T01:07:58;12.43;;;11.33;;
16994;SDS011;8614;48.522;9.206;2023-08-20T01:10:39;11.60;;;10.50;;
16994;SDS011;8614;48.522;9.206;2023-08-20T01:13:09;11.27;;;10.27;;
16994;SDS011;8614;48.522;9.206;2023-08-20T01:15:36;11.17;;;10.17;;
16994;SDS011;8614;48.522;9.206;2023-08-20T01:18:03;11.47;;;10.43;;
16994;SDS011;8614;48.522;9.206;2023-08-20T01:20:31;11.43;;;10.33;;
16994;SDS011;8614;48.522;9.206;2023-08-20T01:23:22;11.57;;;10.67;;
16994;SDS011;8614;48.522;9.206;2023-08-20T01:26:22;12.37;;;11.27;;
16994;SDS011;8614;48.522;9.206;2023-08-20T01:29:03;11.80;;;10.80;;
16994;SDS011;8614;48.522;9.206;2023-08-20T01:31:32;11.83;;;10.80;;
16994;SDS011;8614;48.522;9.206;2023-08-20T01:33:59;12.10;;;11.00;;
16994;SDS011;8614;48.522;9.206;2023-08-20T01:36:27;12.40;;;11.30;;
16994;SDS011;8614;48.522;9.206;2023-08-20T01:38:54;13.03;;;11.93;;
16994;SDS011;8614;48.522;9.206;2023-08-20T01:41:22;12.47;;;11.37;;
16994;SDS011;8614;48.522;9.206;2023-08-20T01:43:49;12.60;;;11.47;;
16994;SDS011;8614;48.522;9.206;2023-08-20T01:46:17;11.93;;;10.70;;
16994;SDS011;8614;48.522;9.206;2023-08-20T01:48:44;12.57;;;11.27;;
16994;SDS011;8614;48.522;9.206;2023-08-20T01:51:11;12.70;;;11.50;;
16994;SDS011;8614;48.522;9.206;2023-08-20T01:53:38;12.40;;;11.20;;
16994;SDS011;8614;48.522;9.206;2023-08-20T01:56:10;12.77;;;11.60;;
16994;SDS011;8614;48.522;9.206;2023-08-20T01:58:38;12.17;;;11.10;;
16994;SDS011;8614;48.522;9.206;2023-08-20T02:01:05;11.83;;;10.77;;
16994;SDS011;8614;48.522;9.206;2023-08-20T02:03:33;11.53;;;10.57;;
16994;SDS011;8614;48.522;9.206;2023-08-20T02:06:01;12.63;;;11.43;;
16994;SDS011;8614;48.522;9.206;2023-08-20T02:08:28;12.30;;;11.30;;
16994;SDS011;8614;48.522;9.206;2023-08-20T02:10:59;12.10;;;11.10;;
16994;SDS011;8614;48.522;9.206;2023-08-20T02:13:26;13.10;;;11.30;;
16994;SDS011;8614;48.522;9.206;2023-08-20T02:15:57;11.80;;;10.70;;
16994;SDS011;8614;48.522;9.206;2023-08-20T02:18:26;12.47;;;11.30;;
16994;SDS011;8614;48.522;9.206;2023-08-20T02:20:55;12.27;;;11.07;;
16994;SDS011;8614;48.522;9.206;2023-08-20T02:23:22;12.23;;;11.13;;
16994;SDS011;8614;48.522;9.206;2023-08-20T02:25:50;12.23;;;11.00;;
16994;SDS011;8614;48.522;9.206;2023-08-20T02:28:17;12.17;;;11.07;;
16994;SDS011;8614;48.522;9.206;2023-08-20T02:30:45;13.53;;;11.00;;
16994;SDS011;8614;48.522;9.206;2023-08-20T02:33:12;12.50;;;11.40;;
16994;SDS011;8614;48.522;9.206;2023-08-20T02:35:39;11.33;;;10.30;;
16994;SDS011;8614;48.522;9.206;2023-08-20T02:38:07;11.93;;;10.93;;
16994;SDS011;8614;48.522;9.206;2023-08-20T02:40:38;12.40;;;11.40;;
16994;SDS011;8614;48.522;9.206;2023-08-20T02:43:05;11.77;;;10.80;;
16994;SDS011;8614;48.522;9.206;2023-08-20T02:45:32;12.73;;;11.63;;
16994;SDS011;8614;48.522;9.206;2023-08-20T02:47:59;12.57;;;11.37;;
16994;SDS011;8614;48.522;9.206;2023-08-20T02:50:26;12.00;;;11.00;;
16994;SDS011;8614;48.522;9.206;2023-08-20T02:52:53;12.33;;;11.23;;
16994;SDS011;8614;48.522;9.206;2023-08-20T02:55:22;12.53;;;11.30;;
16994;SDS011;8614;48.522;9.206;2023-08-20T02:57:49;12.03;;;11.03;;
16994;SDS011;8614;48.522;9.206;2023-08-20T03:00:15;11.53;;;10.40;;
16994;SDS011;8614;48.522;9.206;2023-08-20T03:02:42;8.40;;;7.50;;
16994;SDS011;8614;48.522;9.206;2023-08-20T03:05:09;9.03;;;8.13;;
16994;SDS011;8614;48.522;9.206;2023-08-20T03:07:36;8.57;;;7.77;;
16994;SDS011;8614;48.522;9.206;2023-08-20T03:10:03;11.40;;;10.50;;
16994;SDS011;8614;48.522;9.206;2023-08-20T03:12:32;12.43;;;11.43;;
16994;SDS011;8614;48.522;9.206;2023-08-20T03:14:59;11.40;;;10.50;;
16994;SDS011;8614;48.522;9.206;2023-08-20T03:17:27;8.23;;;7.33;;
16994;SDS011;8614;48.522;9.206;2023-08-20T03:19:54;8.27;;;7.47;;
16994;SDS011;8614;48.522;9.206;2023-08-20T03:22:22;8.13;;;7.37;;
16994;SDS011;8614;48.522;9.206;2023-08-20T03:24:50;8.47;;;7.67;;
16994;SDS011;8614;48.522;9.206;2023-08-20T03:27:17;8.70;;;7.80;;
16994;SDS011;8614;48.522;9.206;2023-08-20T03:29:45;9.50;;;8.60;;
16994;SDS011;8614;48.522;9.206;2023-08-20T03:32:12;10.63;;;8.80;;
16994;SDS011;8614;48.522;9.206;2023-08-20T03:34:40;10.77;;;8.87;;
16994;SDS011;8614;48.522;9.206;2023-08-20T03:37:07;10.20;;;8.27;;
16994;SDS011;8614;48.522;9.206;2023-08-20T03:39:34;9.00;;;8.00;;
16994;SDS011;8614;48.522;9.206;2023-08-20T03:42:01;9.63;;;8.73;;
16994;SDS011;8614;48.522;9.206;2023-08-20T03:44:28;9.07;;;8.27;;
16994;SDS011;8614;48.522;9.206;2023-08-20T03:46:56;8.87;;;7.97;;
16994;SDS011;8614;48.522;9.206;2023-08-20T03:49:25;8.90;;;8.10;;
16994;SDS011;8614;48.522;9.206;2023-08-20T03:51:52;8.10;;;7.33;;
16994;SDS011;8614;48.522;9.206;2023-08-20T03:54:18;7.93;;;7.23;;
16994;SDS011;8614;48.522;9.206;2023-08-20T03:56:46;11.53;;;10.63;;
16994;SDS011;8614;48.522;9.206;2023-08-20T03:59:12;10.53;;;9.47;;
16994;SDS011;8614;48.522;9.206;2023-08-20T04:01:39;10.33;;;9.43;;
16994;SDS011;8614;48.522;9.206;2023-08-20T04:04:08;10.03;;;9.13;;
16994;SDS011;8614;48.522;9.206;2023-08-20T04:06:34;12.60;;;11.60;;
16994;SDS011;8614;48.522;9.206;2023-08-20T04:09:01;12.37;;;11.17;;
16994;SDS011;8614;48.522;9.206;2023-08-20T04:11:29;11.97;;;10.87;;
16994;SDS011;8614;48.522;9.206;2023-08-20T04:13:55;12.43;;;11.43;;
16994;SDS011;8614;48.522;9.206;2023-08-20T04:16:22;12.40;;;11.30;;
16994;SDS011;8614;48.522;9.206;2023-08-20T04:18:49;13.23;;;12.13;;
16994;SDS011;8614;48.522;9.206;2023-08-20T04:21:17;12.23;;;11.23;;
16994;SDS011;8614;48.522;9.206;2023-08-20T04:23:44;10.87;;;9.97;;
16994;SDS011;8614;48.522;9.206;2023-08-20T04:26:11;10.93;;;8.77;;
16994;SDS011;8614;48.522;9.206;2023-08-20T04:28:38;9.40;;;8.43;;
16994;SDS011;8614;48.522;9.206;2023-08-20T04:31:06;9.37;;;8.37;;
16994;SDS011;8614;48.522;9.206;2023-08-20T04:33:47;9.33;;;8.43;;
16994;SDS011;8614;48.522;9.206;2023-08-20T04:36:19;8.27;;;7.47;;
16994;SDS011;8614;48.522;9.206;2023-08-20T04:38:46;9.23;;;8.03;;
16994;SDS011;8614;48.522;9.206;2023-08-20T04:41:13;9.03;;;8.13;;
16994;SDS011;8614;48.522;9.206;2023-08-20T04:43:39;9.40;;;8.43;;
16994;SDS011;8614;48.522;9.206;2023-08-20T04:46:06;9.00;;;7.87;;
16994;SDS011;8614;48.522;9.206;2023-08-20T04:48:34;10.17;;;9.17;;
16994;SDS011;8614;48.522;9.206;2023-08-20T04:51:01;9.90;;;8.87;;
16994;SDS011;8614;48.522;9.206;2023-08-20T04:53:30;11.20;;;10.20;;
16994;SDS011;8614;48.522;9.206;2023-08-20T04:55:58;10.00;;;9.10;;
16994;SDS011;8614;48.522;9.206;2023-08-20T04:58:24;11.30;;;10.20;;
16994;SDS011;8614;48.522;9.206;2023-08-20T05:00:51;11.13;;;9.60;;
16994;SDS011;8614;48.522;9.206;2023-08-20T05:03:18;10.50;;;9.43;;
16994;SDS011;8614;48.522;9.206;2023-08-20T05:05:48;10.77;;;9.83;;
16994;SDS011;8614;48.522;9.206;2023-08-20T05:08:15;11.57;;;10.53;;
16994;SDS011;8614;48.522;9.206;2023-08-20T05:10:43;10.73;;;9.83;;
16994;SDS011;8614;48.522;9.206;2023-08-20T05:13:11;9.60;;;8.10;;
16994;SDS011;8614;48.522;9.206;2023-08-20T05:15:38;8.63;;;7.83;;
16994;SDS011;8614;48.522;9.206;2023-08-20T05:18:05;8.80;;;8.00;;
16994;SDS011;8614;48.522;9.206;2023-08-20T05:20:31;10.67;;;9.77;;
16994;SDS011;8614;48.522;9.206;2023-08-20T05:22:59;10.03;;;9.13;;
16994;SDS011;8614;48.522;9.206;2023-08-20T05:25:26;10.53;;;9.53;;
16994;SDS011;8614;48.522;9.206;2023-08-20T05:27:54;10.67;;;9.67;;
16994;SDS011;8614;48.522;9.206;2023-08-20T05:30:21;12.10;;;11.10;;
16994;SDS011;8614;48.522;9.206;2023-08-20T05:32:48;8.43;;;7.63;;
16994;SDS011;8614;48.522;9.206;2023-08-20T05:35:14;12.93;;;11.83;;
16994;SDS011;8614;48.522;9.206;2023-08-20T05:37:43;11.73;;;10.73;;
16994;SDS011;8614;48.522;9.206;2023-08-20T05:40:10;12.80;;;11.80;;
16994;SDS011;8614;48.522;9.206;2023-08-20T05:42:37;13.63;;;12.53;;
16994;SDS011;8614;48.522;9.206;2023-08-20T05:45:07;12.33;;;11.17;;
16994;SDS011;8614;48.522;9.206;2023-08-20T05:47:34;9.20;;;8.30;;
16994;SDS011;8614;48.522;9.206;2023-08-20T05:50:02;10.53;;;9.43;;
16994;SDS011;8614;48.522;9.206;2023-08-20T05:52:29;11.53;;;10.40;;
16994;SDS011;8614;48.522;9.206;2023-08-20T05:54:56;11.50;;;10.60;;
16994;SDS011;8614;48.522;9.206;2023-08-20T05:57:23;9.93;;;8.60;;
16994;SDS011;8614;48.522;9.206;2023-08-20T05:59:49;9.13;;;8.23;;
16994;SDS011;8614;48.522;9.206;2023-08-20T06:02:18;11.50;;;10.40;;
16994;SDS011;8614;48.522;9.206;2023-08-20T06:04:46;12.97;;;11.87;;
16994;SDS011;8614;48.522;9.206;2023-08-20T06:07:14;13.10;;;11.90;;
16994;SDS011;8614;48.522;9.206;2023-08-20T06:09:42;12.60;;;11.50;;
16994;SDS011;8614;48.522;9.206;2023-08-20T06:12:08;12.07;;;10.97;;
16994;SDS011;8614;48.522;9.206;2023-08-20T06:14:35;12.67;;;11.60;;
16994;SDS011;8614;48.522;9.206;2023-08-20T06:17:02;9.87;;;8.33;;
16994;SDS011;8614;48.522;9.206;2023-08-20T06:19:30;9.03;;;8.10;;
16994;SDS011;8614;48.522;9.206;2023-08-20T06:21:57;12.00;;;10.70;;
16994;SDS011;8614;48.522;9.206;2023-08-20T06:24:24;12.17;;;11.20;;
16994;SDS011;8614;48.522;9.206;2023-08-20T06:26:51;12.47;;;10.47;;
16994;SDS011;8614;48.522;9.206;2023-08-20T06:29:18;10.37;;;9.47;;
16994;SDS011;8614;48.522;9.206;2023-08-20T06:31:46;10.33;;;9.43;;
16994;SDS011;8614;48.522;9.206;2023-08-20T06:34:14;11.40;;;10.40;;
16994;SDS011;8614;48.522;9.206;2023-08-20T06:36:42;12.70;;;11.50;;
16994;SDS011;8614;48.522;9.206;2023-08-20T06:39:09;12.13;;;11.07;;
16994;SDS011;8614;48.522;9.206;2023-08-20T06:41:36;9.53;;;8.70;;
16994;SDS011;8614;48.522;9.206;2023-08-20T06:44:11;12.27;;;11.17;;
16994;SDS011;8614;48.522;9.206;2023-08-20T06:46:38;8.67;;;7.77;;
16994;SDS011;8614;48.522;9.206;2023-08-20T06:49:04;12.67;;;11.67;;
16994;SDS011;8614;48.522;9.206;2023-08-20T06:51:32;12.20;;;11.20;;
16994;SDS011;8614;48.522;9.206;2023-08-20T06:54:00;10.30;;;9.40;;
16994;SDS011;8614;48.522;9.206;2023-08-20T06:56:27;8.80;;;8.00;;
16994;SDS011;8614;48.522;9.206;2023-08-20T06:58:54;8.53;;;7.63;;
16994;SDS011;8614;48.522;9.206;2023-08-20T07:01:21;9.17;;;8.27;;
16994;SDS011;8614;48.522;9.206;2023-08-20T07:03:48;10.87;;;9.77;;
16994;SDS011;8614;48.522;9.206;2023-08-20T07:06:15;10.33;;;9.30;;
16994;SDS011;8614;48.522;9.206;2023-08-20T07:08:43;9.43;;;7.97;;
16994;SDS011;8614;48.522;9.206;2023-08-20T07:11:11;9.30;;;8.37;;
16994;SDS011;8614;48.522;9.206;2023-08-20T07:13:38;9.30;;;8.50;;
16994;SDS011;8614;48.522;9.206;2023-08-20T07:16:05;11.20;;;10.20;;
16994;SDS011;8614;48.522;9.206;2023-08-20T07:18:32;11.03;;;10.13;;
16994;SDS011;8614;48.522;9.206;2023-08-20T07:20:59;11.10;;;8.83;;
16994;SDS011;8614;48.522;9.206;2023-08-20T07:23:25;9.70;;;8.70;;
16994;SDS011;8614;48.522;9.206;2023-08-20T07:26:03;9.47;;;8.43;;
16994;SDS011;8614;48.522;9.206;2023-08-20T07:28:32;8.87;;;7.93;;
16994;SDS011;8614;48.522;9.206;2023-08-20T07:31:13;9.77;;;8.83;;
16994;SDS011;8614;48.522;9.206;2023-08-20T07:33:39;9.70;;;8.30;;
16994;SDS011;8614;48.522;9.206;2023-08-20T07:36:06;9.83;;;8.37;;
16994;SDS011;8614;48.522;9.206;2023-08-20T07:38:33;12.30;;;11.20;;
16994;SDS011;8614;48.522;9.206;2023-08-20T07:41:00;15.20;;;12.03;;
16994;SDS011;8614;48.522;9.206;2023-08-20T07:43:27;10.40;;;8.83;;
16994;SDS011;8614;48.522;9.206;2023-08-20T07:45:55;12.43;;;11.30;;
16994;SDS011;8614;48.522;9.206;2023-08-20T07:48:22;10.33;;;8.40;;
16994;SDS011;8614;48.522;9.206;2023-08-20T07:50:49;9.47;;;8.67;;
16994;SDS011;8614;48.522;9.206;2023-08-20T07:53:15;9.73;;;8.80;;
16994;SDS011;8614;48.522;9.206;2023-08-20T07:55:42;12.03;;;10.93;;
16994;SDS011;8614;48.522;9.206;2023-08-20T07:58:10;9.37;;;7.77;;
16994;SDS011;8614;48.522;9.206;2023-08-20T08:00:37;10.80;;;9.47;;
16994;SDS011;8614;48.522;9.206;2023-08-20T08:03:05;14.03;;;12.73;;
16994;SDS011;8614;48.522;9.206;2023-08-20T08:05:32;11.93;;;8.70;;
16994;SDS011;8614;48.522;9.206;2023-08-20T08:07:59;9.87;;;8.97;;
16994;SDS011;8614;48.522;9.206;2023-08-20T08:10:26;9.37;;;8.03;;
16994;SDS011;8614;48.522;9.206;2023-08-20T08:12:53;9.37;;;7.80;;
16994;SDS011;8614;48.522;9.206;2023-08-20T08:15:20;12.47;;;11.17;;
16994;SDS011;8614;48.522;9.206;2023-08-20T08:17:47;11.10;;;10.30;;
16994;SDS011;8614;48.522;9.206;2023-08-20T08:20:15;11.07;;;10.07;;
16994;SDS011;8614;48.522;9.206;2023-08-20T08:22:42;11.37;;;10.27;;
16994;SDS011;8614;48.522;9.206;2023-08-20T08:25:09;12.10;;;11.00;;
16994;SDS011;8614;48.522;9.206;2023-08-20T08:27:36;11.03;;;10.03;;
16994;SDS011;8614;48.522;9.206;2023-08-20T08:30:03;11.60;;;10.55;;
16994;SDS011;8614;48.522;9.206;2023-08-20T08:32:30;10.77;;;9.87;;
16994;SDS011;8614;48.522;9.206;2023-08-20T08:34:57;10.35;;;9.20;;
16994;SDS011;8614;48.522;9.206;2023-08-20T08:37:25;12.07;;;10.73;;
16994;SDS011;8614;48.522;9.206;2023-08-20T08:39:52;11.68;;;10.60;;
16994;SDS011;8614;48.522;9.206;2023-08-20T08:42:19;11.50;;;10.30;;
16994;SDS011;8614;48.522;9.206;2023-08-20T08:44:50;12.00;;;10.75;;
16994;SDS011;8614;48.522;9.206;2023-08-20T08:47:17;14.15;;;11.23;;
16994;SDS011;8614;48.522;9.206;2023-08-20T08:49:45;11.68;;;10.65;;
16994;SDS011;8614;48.522;9.206;2023-08-20T08:52:14;12.88;;;10.98;;
16994;SDS011;8614;48.522;9.206;2023-08-20T08:54:43;11.38;;;10.43;;
16994;SDS011;8614;48.522;9.206;2023-08-20T08:57:10;12.00;;;11.02;;
16994;SDS011;8614;48.522;9.206;2023-08-20T08:59:36;10.40;;;9.57;;
16994;SDS011;8614;48.522;9.206;2023-08-20T09:02:06;9.23;;;8.43;;
16994;SDS011;8614;48.522;9.206;2023-08-20T09:04:37;10.50;;;9.48;;
16994;SDS011;8614;48.522;9.206;2023-08-20T09:07:04;9.77;;;8.88;;
16994;SDS011;8614;48.522;9.206;2023-08-20T09:09:31;11.50;;;9.55;;
16994;SDS011;8614;48.522;9.206;2023-08-20T09:12:00;10.43;;;9.52;;
16994;SDS011;8614;48.522;9.206;2023-08-20T09:14:28;9.88;;;9.07;;
16994;SDS011;8614;48.522;9.206;2023-08-20T09:16:55;10.23;;;9.25;;
16994;SDS011;8614;48.522;9.206;2023-08-20T09:19:23;11.05;;;10.02;;
16994;SDS011;8614;48.522;9.206;2023-08-20T09:21:50;9.25;;;8.55;;
16994;SDS011;8614;48.522;9.206;2023-08-20T09:24:25;11.20;;;10.18;;
16994;SDS011;8614;48.522;9.206;2023-08-20T09:26:56;10.45;;;9.27;;
16994;SDS011;8614;48.522;9.206;2023-08-20T09:29:24;11.35;;;9.65;;
16994;SDS011;8614;48.522;9.206;2023-08-20T09:31:51;11.02;;;10.07;;
16994;SDS011;8614;48.522;9.206;2023-08-20T09:34:31;10.68;;;9.65;;
16994;SDS011;8614;48.522;9.206;2023-08-20T09:37:02;11.02;;;10.02;;
16994;SDS011;8614;48.522;9.206;2023-08-20T09:39:29;10.13;;;9.18;;
16994;SDS011;8614;48.522;9.206;2023-08-20T09:41:56;10.90;;;9.93;;
16994;SDS011;8614;48.522;9.206;2023-08-20T09:44:27;10.05;;;9.15;;
16994;SDS011;8614;48.522;9.206;2023-08-20T09:46:57;9.70;;;8.80;;
16994;SDS011;8614;48.522;9.206;2023-08-20T09:49:24;10.30;;;9.30;;
16994;SDS011;8614;48.522;9.206;2023-08-20T09:51:55;10.13;;;9.15;;
16994;SDS011;8614;48.522;9.206;2023-08-20T09:54:26;10.63;;;9.57;;
16994;SDS011;8614;48.522;9.206;2023-08-20T09:57:00;9.75;;;8.85;;
16994;SDS011;8614;48.522;9.206;2023-08-20T09:59:29;9.80;;;8.82;;
16994;SDS011;8614;48.522;9.206;2023-08-20T10:01:57;9.63;;;8.82;;
16994;SDS011;8614;48.522;9.206;2023-08-20T10:04:25;10.23;;;9.23;;
16994;SDS011;8614;48.522;9.206;2023-08-20T10:06:52;10.82;;;8.90;;
16994;SDS011;8614;48.522;9.206;2023-08-20T10:09:20;9.63;;;8.73;;
16994;SDS011;8614;48.522;9.206;2023-08-20T10:11:48;9.30;;;8.40;;
16994;SDS011;8614;48.522;9.206;2023-08-20T10:14:14;9.98;;;8.82;;
16994;SDS011;8614;48.522;9.206;2023-08-20T10:16:43;9.60;;;8.68;;
16994;SDS011;8614;48.522;9.206;2023-08-20T10:19:11;9.07;;;8.38;;
16994;SDS011;8614;48.522;9.206;2023-08-20T10:21:43;9.07;;;8.25;;
16994;SDS011;8614;48.522;9.206;2023-08-20T10:24:12;9.25;;;8.45;;
16994;SDS011;8614;48.522;9.206;2023-08-20T10:26:45;9.27;;;8.43;;
16994;SDS011;8614;48.522;9.206;2023-08-20T10:32:02;8.90;;;8.00;;
16994;SDS011;8614;48.522;9.206;2023-08-20T10:34:33;10.32;;;9.23;;
16994;SDS011;8614;48.522;9.206;2023-08-20T10:37:02;10.13;;;8.50;;
16994;SDS011;8614;48.522;9.206;2023-08-20T10:39:34;8.60;;;7.80;;
16994;SDS011;8614;48.522;9.206;2023-08-20T10:44:58;8.38;;;6.20;;
16994;SDS011;8614;48.522;9.206;2023-08-20T10:47:36;7.43;;;6.10;;
16994;SDS011;8614;48.522;9.206;2023-08-20T10:50:04;9.00;;;5.68;;
16994;SDS011;8614;48.522;9.206;2023-08-20T10:52:32;6.53;;;5.60;;
16994;SDS011;8614;48.522;9.206;2023-08-20T10:55:05;7.18;;;5.78;;
16994;SDS011;8614;48.522;9.206;2023-08-20T10:57:33;8.87;;;6.33;;
16994;SDS011;8614;48.522;9.206;2023-08-20T11:00:01;7.67;;;6.27;;
16994;SDS011;8614;48.522;9.206;2023-08-20T11:02:37;8.90;;;6.07;;
16994;SDS011;8614;48.522;9.206;2023-08-20T11:05:12;7.13;;;6.43;;
16994;SDS011;8614;48.522;9.206;2023-08-20T11:07:44;7.07;;;6.00;;
16994;SDS011;8614;48.522;9.206;2023-08-20T11:10:13;6.87;;;6.17;;
16994;SDS011;8614;48.522;9.206;2023-08-20T11:12:40;8.57;;;6.38;;
16994;SDS011;8614;48.522;9.206;2023-08-20T11:15:08;9.23;;;6.60;;
16994;SDS011;8614;48.522;9.206;2023-08-20T11:17:41;7.67;;;6.53;;
16994;SDS011;8614;48.522;9.206;2023-08-20T11:20:09;7.13;;;6.43;;
16994;SDS011;8614;48.522;9.206;2023-08-20T11:22:38;7.40;;;5.77;;
16994;SDS011;8614;48.522;9.206;2023-08-20T11:25:05;6.73;;;5.80;;
16994;SDS011;8614;48.522;9.206;2023-08-20T11:27:36;6.83;;;6.13;;
16994;SDS011;8614;48.522;9.206;2023-08-20T11:30:06;8.53;;;6.00;;
16994;SDS011;8614;48.522;9.206;2023-08-20T11:32:35;7.37;;;6.50;;
16994;SDS011;8614;48.522;9.206;2023-08-20T11:35:03;8.73;;;6.30;;
16994;SDS011;8614;48.522;9.206;2023-08-20T11:37:30;7.53;;;5.87;;
16994;SDS011;8614;48.522;9.206;2023-08-20T11:39:57;8.63;;;6.30;;
16994;SDS011;8614;48.522;9.206;2023-08-20T11:42:24;6.67;;;6.07;;
16994;SDS011;8614;48.522;9.206;2023-08-20T11:44:53;7.27;;;6.07;;
16994;SDS011;8614;48.522;9.206;2023-08-20T11:47:21;6.80;;;5.83;;
16994;SDS011;8614;48.522;9.206;2023-08-20T11:49:56;6.83;;;6.13;;
16994;SDS011;8614;48.522;9.206;2023-08-20T11:52:30;5.67;;;5.17;;
16994;SDS011;8614;48.522;9.206;2023-08-20T11:54:58;8.87;;;5.93;;
16994;SDS011;8614;48.522;9.206;2023-08-20T11:57:25;10.93;;;6.20;;
16994;SDS011;8614;48.522;9.206;2023-08-20T11:59:52;7.30;;;6.60;;
16994;SDS011;8614;48.522;9.206;2023-08-20T12:02:24;8.43;;;6.73;;
16994;SDS011;8614;48.522;9.206;2023-08-20T12:04:51;9.03;;;7.20;;
16994;SDS011;8614;48.522;9.206;2023-08-20T12:07:19;10.10;;;7.07;;
16994;SDS011;8614;48.522;9.206;2023-08-20T12:09:46;9.13;;;6.87;;
16994;SDS011;8614;48.522;9.206;2023-08-20T12:12:13;7.17;;;6.43;;
16994;SDS011;8614;48.522;9.206;2023-08-20T12:14:41;9.87;;;6.13;;
16994;SDS011;8614;48.522;9.206;2023-08-20T12:17:08;7.90;;;5.67;;
16994;SDS011;8614;48.522;9.206;2023-08-20T12:19:35;8.57;;;5.90;;
16994;SDS011;8614;48.522;9.206;2023-08-20T12:22:02;13.33;;;6.53;;
16994;SDS011;8614;48.522;9.206;2023-08-20T12:24:31;9.13;;;6.70;;
16994;SDS011;8614;48.522;9.206;2023-08-20T12:26:57;7.23;;;6.00;;
16994;SDS011;8614;48.522;9.206;2023-08-20T12:29:24;7.90;;;6.00;;
16994;SDS011;8614;48.522;9.206;2023-08-20T12:31:51;7.23;;;5.77;;
16994;SDS011;8614;48.522;9.206;2023-08-20T12:34:18;8.07;;;7.37;;
16994;SDS011;8614;48.522;9.206;2023-08-20T12:36:46;7.70;;;5.70;;
16994;SDS011;8614;48.522;9.206;2023-08-20T12:39:13;6.67;;;5.73;;
16994;SDS011;8614;48.522;9.206;2023-08-20T12:41:41;6.63;;;5.37;;
16994;SDS011;8614;48.522;9.206;2023-08-20T12:44:08;6.60;;;6.00;;
16994;SDS011;8614;48.522;9.206;2023-08-20T12:46:35;8.40;;;7.63;;
16994;SDS011;8614;48.522;9.206;2023-08-20T12:49:02;6.10;;;5.50;;
16994;SDS011;8614;48.522;9.206;2023-08-20T12:51:29;6.67;;;5.50;;
16994;SDS011;8614;48.522;9.206;2023-08-20T12:53:55;5.67;;;5.07;;
16994;SDS011;8614;48.522;9.206;2023-08-20T12:56:22;6.80;;;5.00;;
16994;SDS011;8614;48.522;9.206;2023-08-20T12:58:50;6.40;;;5.03;;
16994;SDS011;8614;48.522;9.206;2023-08-20T13:01:18;6.67;;;4.93;;
16994;SDS011;8614;48.522;9.206;2023-08-20T13:03:45;8.07;;;5.53;;
16994;SDS011;8614;48.522;9.206;2023-08-20T13:06:13;6.33;;;5.67;;
16994;SDS011;8614;48.522;9.206;2023-08-20T13:08:41;5.77;;;5.20;;
16994;SDS011;8614;48.522;9.206;2023-08-20T13:11:09;7.33;;;5.30;;
16994;SDS011;8614;48.522;9.206;2023-08-20T13:13:39;5.80;;;5.03;;
16994;SDS011;8614;48.522;9.206;2023-08-20T13:16:08;7.27;;;6.43;;
16994;SDS011;8614;48.522;9.206;2023-08-20T13:18:36;7.07;;;6.30;;
16994;SDS011;8614;48.522;9.206;2023-08-20T13:21:03;8.33;;;6.30;;
16994;SDS011;8614;48.522;9.206;2023-08-20T13:23:30;7.20;;;5.80;;
16994;SDS011;8614;48.522;9.206;2023-08-20T13:25:56;7.70;;;6.30;;
16994;SDS011;8614;48.522;9.206;2023-08-20T13:28:23;8.57;;;6.60;;
16994;SDS011;8614;48.522;9.206;2023-08-20T13:30:50;8.27;;;6.43;;
16994;SDS011;8614;48.522;9.206;2023-08-20T13:33:18;12.17;;;6.00;;
16994;SDS011;8614;48.522;9.206;2023-08-20T13:35:45;7.93;;;7.13;;
16994;SDS011;8614;48.522;9.206;2023-08-20T13:38:12;8.83;;;7.20;;
16994;SDS011;8614;48.522;9.206;2023-08-20T13:40:38;7.27;;;6.00;;
16994;SDS011;8614;48.522;9.206;2023-08-20T13:43:05;6.67;;;6.07;;
16994;SDS011;8614;48.522;9.206;2023-08-20T13:45:34;9.03;;;6.47;;
16994;SDS011;8614;48.522;9.206;2023-08-20T13:48:01;8.57;;;6.70;;
16994;SDS011;8614;48.522;9.206;2023-08-20T13:50:30;6.50;;;5.90;;
16994;SDS011;8614;48.522;9.206;2023-08-20T13:52:56;8.30;;;6.43;;
16994;SDS011;8614;48.522;9.206;2023-08-20T13:55:23;9.63;;;6.33;;
16994;SDS011;8614;48.522;9.206;2023-08-20T13:57:50;9.03;;;6.00;;
16994;SDS011;8614;48.522;9.206;2023-08-20T14:00:17;7.27;;;6.40;;
16994;SDS011;8614;48.522;9.206;2023-08-20T14:02:44;8.07;;;7.27;;
16994;SDS011;8614;48.522;9.206;2023-08-20T14:05:11;11.27;;;7.90;;
16994;SDS011;8614;48.522;9.206;2023-08-20T14:07:39;7.77;;;7.00;;
16994;SDS011;8614;48.522;9.206;2023-08-20T14:10:07;9.33;;;7.10;;
16994;SDS011;8614;48.522;9.206;2023-08-20T14:12:34;9.33;;;8.10;;
16994;SDS011;8614;48.522;9.206;2023-08-20T14:15:01;8.93;;;7.77;;
16994;SDS011;8614;48.522;9.206;2023-08-20T14:17:28;7.73;;;7.03;;
16994;SDS011;8614;48.522;9.206;2023-08-20T14:19:55;11.23;;;7.07;;
16994;SDS011;8614;48.522;9.206;2023-08-20T14:22:22;10.47;;;6.93;;
16994;SDS011;8614;48.522;9.206;2023-08-20T14:24:50;7.90;;;7.10;;
16994;SDS011;8614;48.522;9.206;2023-08-20T14:27:17;7.53;;;6.83;;
16994;SDS011;8614;48.522;9.206;2023-08-20T14:29:44;8.93;;;6.70;;
16994;SDS011;8614;48.522;9.206;2023-08-20T14:32:11;9.83;;;7.47;;
16994;SDS011;8614;48.522;9.206;2023-08-20T14:34:38;11.07;;;7.33;;
16994;SDS011;8614;48.522;9.206;2023-08-20T14:37:04;8.97;;;7.43;;
16994;SDS011;8614;48.522;9.206;2023-08-20T14:39:32;8.20;;;7.40;;
16994;SDS011;8614;48.522;9.206;2023-08-20T14:42:00;11.23;;;7.33;;
16994;SDS011;8614;48.522;9.206;2023-08-20T14:44:27;8.27;;;7.27;;
16994;SDS011;8614;48.522;9.206;2023-08-20T14:46:54;9.30;;;7.70;;
16994;SDS011;8614;48.522;9.206;2023-08-20T14:49:21;7.77;;;7.07;;
16994;SDS011;8614;48.522;9.206;2023-08-20T14:51:48;9.63;;;7.73;;
16994;SDS011;8614;48.522;9.206;2023-08-20T14:54:14;9.23;;;7.80;;
16994;SDS011;8614;48.522;9.206;2023-08-20T14:56:41;9.47;;;7.90;;
16994;SDS011;8614;48.522;9.206;2023-08-20T14:59:10;8.93;;;8.03;;